Time;durP1;ratioP1;P1;durP2;ratioP2;P2;SDS_P1;SDS_P2;PMS_P1;PMS_P2;Temp;Humidity;BMP_temperature;BMP_pressure;BME280_temperature;BME280_humidity;BME280_pressure;Samples;Min_cycle;Max_cycle;Signal;HPM_P1;HPM_P2
2021/04/01 00:01:09;;;;;;;15.00;6.40;;;15.60;93.00;;;;;;5011937;28;20037;-80
2021/04/01 00:03:37;;;;;;;13.63;5.60;;;15.50;93.20;;;;;;5010684;28;20022;-80
2021/04/01 00:06:03;;;;;;;17.02;6.30;;;15.50;93.00;;;;;;5011077;28;20427;-80
2021/04/01 00:08:29;;;;;;;10.93;6.57;;;15.40;92.90;;;;;;5011790;28;20026;-80
2021/04/01 00:10:54;;;;;;;17.75;6.63;;;15.40;92.60;;;;;;5012099;28;20032;-80
2021/04/01 00:13:20;;;;;;;18.98;5.57;;;15.30;92.70;;;;;;5011392;28;20070;-80
2021/04/01 00:15:46;;;;;;;20.88;6.78;;;15.30;92.90;;;;;;5011340;28;20474;-80
2021/04/01 00:18:16;;;;;;;15.13;5.55;;;15.20;93.00;;;;;;4993972;28;20042;-79
2021/04/01 00:20:42;;;;;;;18.20;6.07;;;15.30;92.80;;;;;;5012160;28;20108;-80
2021/04/01 00:23:08;;;;;;;14.52;5.32;;;15.20;92.90;;;;;;5011589;28;20026;-79
2021/04/01 00:25:34;;;;;;;24.40;6.38;;;15.20;93.10;;;;;;5011358;28;20360;-80
2021/04/01 00:27:59;;;;;;;14.30;6.05;;;15.20;93.30;;;;;;5011423;28;20386;-81
2021/04/01 00:30:25;;;;;;;23.35;5.80;;;15.30;93.10;;;;;;5011135;28;20026;-79
2021/04/01 00:32:51;;;;;;;11.48;6.38;;;15.30;93.10;;;;;;5011394;28;20029;-79
2021/04/01 00:35:17;;;;;;;9.75;5.68;;;15.30;93.40;;;;;;5010839;28;20060;-78
2021/04/01 00:37:43;;;;;;;19.20;6.05;;;15.30;93.30;;;;;;5011090;28;20034;-80
2021/04/01 00:40:09;;;;;;;10.20;5.03;;;15.30;93.40;;;;;;5010127;28;20128;-79
2021/04/01 00:42:36;;;;;;;17.13;6.72;;;15.30;93.70;;;;;;5011548;28;20033;-79
2021/04/01 00:45:20;;;;;;;13.23;6.40;;;15.30;93.80;;;;;;5014853;28;20026;-80
2021/04/01 00:47:48;;;;;;;13.93;5.18;;;15.30;93.80;;;;;;5015185;28;20022;-80
2021/04/01 00:50:18;;;;;;;14.63;5.72;;;15.20;94.00;;;;;;5014923;28;20025;-80
2021/04/01 00:52:44;;;;;;;17.85;5.80;;;15.20;94.40;;;;;;5015041;28;20025;-80
2021/04/01 00:55:10;;;;;;;20.08;6.45;;;15.10;94.40;;;;;;4996337;28;20054;-80
2021/04/01 00:57:38;;;;;;;12.13;5.57;;;15.10;94.30;;;;;;5014844;28;20026;-80
2021/04/01 01:00:09;;;;;;;12.50;5.63;;;15.10;93.60;;;;;;5014704;28;20227;-79
2021/04/01 01:02:36;;;;;;;12.43;6.17;;;15.10;93.50;;;;;;5014798;28;20014;-79
2021/04/01 01:05:03;;;;;;;10.40;6.05;;;15.10;93.50;;;;;;5014149;28;20483;-79
2021/04/01 01:07:29;;;;;;;11.73;6.57;;;15.10;93.70;;;;;;5013618;28;20033;-78
2021/04/01 01:09:54;;;;;;;15.73;6.30;;;15.00;93.40;;;;;;5014410;28;20030;-79
2021/04/01 01:12:20;;;;;;;14.07;5.68;;;15.00;93.50;;;;;;5013813;28;20430;-80
2021/04/01 01:14:46;;;;;;;14.35;6.00;;;14.90;93.70;;;;;;5014034;28;20026;-80
2021/04/01 01:17:14;;;;;;;17.02;5.82;;;14.90;93.80;;;;;;5014677;28;20113;-80
2021/04/01 01:19:45;;;;;;;12.32;5.85;;;14.80;93.90;;;;;;5014244;28;20026;-80
2021/04/01 01:22:12;;;;;;;21.67;6.23;;;14.90;93.50;;;;;;5014085;28;20037;-79
2021/04/01 01:24:37;;;;;;;14.43;6.07;;;14.80;94.00;;;;;;5013923;28;20109;-80
2021/04/01 01:27:04;;;;;;;17.38;6.68;;;14.80;94.30;;;;;;4996652;28;20113;-80
2021/04/01 01:29:32;;;;;;;21.33;6.38;;;14.80;94.50;;;;;;5014499;28;20130;-79
2021/04/01 01:31:57;;;;;;;14.52;6.13;;;14.70;94.40;;;;;;4996954;28;20113;-78
2021/04/01 01:34:23;;;;;;;17.25;5.85;;;14.70;94.60;;;;;;5013929;28;20110;-80
2021/04/01 01:36:50;;;;;;;19.48;6.85;;;14.70;94.30;;;;;;5013956;28;20034;-80
2021/04/01 01:39:16;;;;;;;21.35;7.07;;;14.70;94.30;;;;;;5014505;28;20026;-79
2021/04/01 01:41:42;;;;;;;16.77;7.40;;;14.70;94.40;;;;;;5013907;28;20378;-79
2021/04/01 01:44:08;;;;;;;14.00;6.55;;;14.60;94.50;;;;;;5013789;28;20022;-80
2021/04/01 01:46:34;;;;;;;17.92;7.78;;;14.50;94.60;;;;;;5013875;28;20068;-79
2021/04/01 01:49:00;;;;;;;28.60;7.68;;;14.60;94.40;;;;;;4996553;28;20481;-79
2021/04/01 01:51:28;;;;;;;21.73;7.07;;;14.50;94.40;;;;;;5013930;28;20554;-80
2021/04/01 01:53:54;;;;;;;19.70;7.07;;;14.40;94.40;;;;;;5013788;28;20364;-79
2021/04/01 01:56:21;;;;;;;16.65;7.35;;;14.40;94.70;;;;;;5013469;28;20096;-80
2021/04/01 01:58:48;;;;;;;21.20;7.85;;;14.30;94.70;;;;;;5013907;28;20021;-80
2021/04/01 02:01:15;;;;;;;16.52;7.40;;;14.20;94.90;;;;;;5013737;28;20479;-79
2021/04/01 02:03:41;;;;;;;18.00;8.23;;;14.30;94.90;;;;;;5013320;28;20034;-80
2021/04/01 02:06:13;;;;;;;23.70;8.70;;;14.20;95.00;;;;;;5013260;28;20029;-80
2021/04/01 02:08:39;;;;;;;16.17;8.45;;;14.20;95.10;;;;;;5013643;28;20463;-79
2021/04/01 02:11:06;;;;;;;17.13;8.05;;;14.20;95.00;;;;;;5013405;28;20389;-79
2021/04/01 02:13:33;;;;;;;25.38;8.55;;;14.20;95.10;;;;;;5013007;28;20025;-79
2021/04/01 02:15:59;;;;;;;21.73;8.88;;;14.20;95.20;;;;;;4995579;28;20439;-78
2021/04/01 02:18:27;;;;;;;22.73;9.02;;;14.20;95.30;;;;;;4995938;28;20037;-79
2021/04/01 02:20:56;;;;;;;21.77;9.07;;;14.20;95.40;;;;;;5013379;28;20121;-80
2021/04/01 02:23:23;;;;;;;26.73;10.07;;;14.20;95.40;;;;;;5013499;28;20022;-80
2021/04/01 02:25:50;;;;;;;21.70;9.75;;;14.20;95.40;;;;;;5013430;28;20030;-79
2021/04/01 02:28:17;;;;;;;26.55;10.02;;;14.20;95.60;;;;;;5013526;28;20029;-79
2021/04/01 02:30:45;;;;;;;30.15;11.50;;;14.20;95.60;;;;;;5013222;28;20025;-79
2021/04/01 02:33:11;;;;;;;27.85;10.95;;;14.30;95.60;;;;;;5013247;28;20053;-79
2021/04/01 02:35:38;;;;;;;39.40;11.48;;;14.20;95.60;;;;;;5012529;28;20036;-80
2021/04/01 02:38:04;;;;;;;29.33;10.10;;;14.20;95.70;;;;;;5013032;28;20018;-79
2021/04/01 02:40:30;;;;;;;25.85;9.95;;;14.20;96.00;;;;;;5013055;28;20390;-79
2021/04/01 02:42:56;;;;;;;23.90;10.32;;;14.20;96.00;;;;;;5012676;28;20022;-79
2021/04/01 02:45:22;;;;;;;23.98;10.82;;;14.20;96.00;;;;;;5013111;28;20554;-79
2021/04/01 02:47:48;;;;;;;28.05;10.35;;;14.20;96.20;;;;;;4995234;28;20522;-79
2021/04/01 02:50:14;;;;;;;34.10;10.57;;;14.20;96.30;;;;;;5013070;28;20497;-78
2021/04/01 02:52:40;;;;;;;27.45;10.57;;;14.20;96.20;;;;;;5012770;28;20464;-80
2021/04/01 02:55:09;;;;;;;32.95;11.73;;;14.20;96.30;;;;;;5012383;28;20046;-80
2021/04/01 02:57:35;;;;;;;28.20;10.10;;;14.20;96.50;;;;;;5012738;28;20498;-79
2021/04/01 03:00:06;;;;;;;25.15;10.75;;;14.20;96.40;;;;;;5012763;28;20040;-80
2021/04/01 03:02:32;;;;;;;29.77;11.10;;;14.30;96.50;;;;;;5012762;28;20025;-80
2021/04/01 03:05:03;;;;;;;33.00;10.88;;;14.20;96.60;;;;;;5012288;28;20022;-80
2021/04/01 03:07:29;;;;;;;26.73;11.13;;;14.20;96.40;;;;;;5012064;28;20022;-80
2021/04/01 03:09:54;;;;;;;23.38;9.98;;;14.20;96.70;;;;;;5012065;28;20022;-79
2021/04/01 03:12:20;;;;;;;37.10;11.82;;;14.20;96.90;;;;;;5011969;28;20028;-79
2021/04/01 03:14:46;;;;;;;33.08;11.48;;;14.20;97.00;;;;;;5012403;28;20080;-80
2021/04/01 03:17:11;;;;;;;41.58;12.73;;;14.20;97.00;;;;;;5011942;28;20394;-80
2021/04/01 03:19:37;;;;;;;39.88;12.30;;;14.20;96.80;;;;;;5012698;28;20041;-80
2021/04/01 03:22:03;;;;;;;45.80;13.23;;;14.20;96.70;;;;;;5012404;28;20026;-80
2021/04/01 03:24:29;;;;;;;29.27;12.10;;;14.20;96.70;;;;;;5012335;28;20065;-80
2021/04/01 03:26:55;;;;;;;31.73;11.40;;;14.20;96.80;;;;;;5012334;28;20426;-80
2021/04/01 03:29:20;;;;;;;28.77;12.85;;;14.10;96.90;;;;;;4998484;28;20102;-80
2021/04/01 03:31:46;;;;;;;39.67;12.32;;;14.10;96.90;;;;;;5012147;28;20038;-77
2021/04/01 03:34:12;;;;;;;30.42;11.93;;;14.10;97.00;;;;;;5011593;28;20038;-80
2021/04/01 03:36:38;;;;;;;25.42;12.45;;;14.10;97.10;;;;;;5011625;28;20113;-79
2021/04/01 03:39:04;;;;;;;32.28;11.90;;;14.00;97.40;;;;;;5011758;28;20041;-79
2021/04/01 03:41:30;;;;;;;35.60;13.63;;;14.00;97.40;;;;;;5011945;28;20053;-79
2021/04/01 03:43:56;;;;;;;56.95;12.80;;;14.00;97.40;;;;;;4994611;28;20458;-78
2021/04/01 03:46:22;;;;;;;39.53;12.82;;;14.00;97.20;;;;;;5011966;28;20038;-80
2021/04/01 03:48:47;;;;;;;31.88;12.50;;;14.00;97.30;;;;;;5012387;28;20379;-79
2021/04/01 03:51:13;;;;;;;37.58;12.50;;;13.90;97.50;;;;;;5011582;28;20125;-79
2021/04/01 03:53:39;;;;;;;36.45;12.10;;;13.90;97.60;;;;;;5012268;28;20022;-79
2021/04/01 03:56:05;;;;;;;32.15;12.60;;;13.90;97.40;;;;;;5012191;28;20582;-79
2021/04/01 04:16:32;;;;;;;34.55;14.48;;;13.60;98.80;;;;;;5012346;28;20038;-78
2021/04/01 04:18:58;;;;;;;36.60;15.48;;;13.70;98.80;;;;;;5014823;28;20069;-78
2021/04/01 04:21:23;;;;;;;37.67;15.80;;;13.60;98.90;;;;;;4998070;28;20026;-78
2021/04/01 04:23:50;;;;;;;42.28;14.93;;;13.60;99.00;;;;;;5015668;28;20026;-77
2021/04/01 04:26:16;;;;;;;42.72;16.75;;;13.60;99.20;;;;;;4998338;28;20073;-77
2021/04/01 04:28:43;;;;;;;50.00;16.55;;;13.50;99.10;;;;;;5016046;28;20057;-77
2021/04/01 04:31:09;;;;;;;32.42;15.45;;;13.50;99.40;;;;;;5015927;28;20121;-78
2021/04/01 04:33:35;;;;;;;44.97;15.68;;;13.50;99.60;;;;;;5009066;28;20037;-78
2021/04/01 04:36:02;;;;;;;41.22;15.02;;;13.50;99.80;;;;;;5015291;28;20022;-77
2021/04/01 04:38:28;;;;;;;36.30;14.70;;;13.50;99.50;;;;;;5015427;28;20038;-77
2021/04/01 04:40:58;;;;;;;35.05;15.43;;;13.50;99.70;;;;;;5016120;28;20485;-77
2021/04/01 04:43:25;;;;;;;46.03;15.25;;;13.50;99.70;;;;;;5015277;28;20028;-78
2021/04/01 04:45:51;;;;;;;34.53;15.02;;;13.60;99.70;;;;;;5015213;28;20402;-77
2021/04/01 04:48:17;;;;;;;35.13;15.38;;;13.60;99.90;;;;;;5015136;28;20093;-77
2021/04/01 04:50:43;;;;;;;32.47;15.27;;;13.60;99.90;;;;;;5015253;28;20033;-78
2021/04/01 04:53:09;;;;;;;43.35;17.80;;;13.60;99.90;;;;;;4997474;28;20049;-77
2021/04/01 04:55:35;;;;;;;43.55;15.75;;;13.60;99.90;;;;;;5014733;28;20046;-78
2021/04/01 04:58:16;;;;;;;39.90;15.98;;;13.70;99.90;;;;;;5014567;28;20033;-77
2021/04/01 05:01:01;;;;;;;44.55;17.30;;;13.70;99.90;;;;;;5015277;28;20022;-77
2021/04/01 05:06:13;;;;;;;48.97;16.98;;;13.80;99.90;;;;;;5015022;28;20029;-78
2021/04/01 05:08:39;;;;;;;46.35;18.52;;;13.80;99.90;;;;;;5014560;28;20022;-77
2021/04/01 05:11:05;;;;;;;50.13;18.10;;;13.90;99.90;;;;;;5014868;28;20029;-78
2021/04/01 05:13:30;;;;;;;47.65;17.95;;;14.00;99.90;;;;;;5014469;28;20029;-78
2021/04/01 05:15:56;;;;;;;41.50;17.75;;;14.10;99.90;;;;;;5014688;28;20026;-77
2021/04/01 05:18:27;;;;;;;42.63;18.20;;;14.20;99.90;;;;;;4996839;28;20030;-78
2021/04/01 05:20:54;;;;;;;54.15;18.95;;;14.50;99.90;;;;;;4997145;28;20072;-77
2021/04/01 05:25:50;;;;;;;43.28;16.58;;;15.40;99.20;;;;;;5014726;28;20538;-77
2021/04/01 05:28:31;;;;;;;41.92;16.90;;;15.80;98.80;;;;;;5013888;28;20112;-78
2021/04/01 05:30:58;;;;;;;47.53;17.88;;;16.10;98.30;;;;;;5001323;28;20057;-79
2021/04/01 05:33:29;;;;;;;41.00;16.48;;;16.60;97.90;;;;;;4996609;28;20079;-79
2021/04/01 05:35:55;;;;;;;41.35;16.88;;;17.00;97.40;;;;;;5013707;28;20038;-77
2021/04/01 05:38:21;;;;;;;48.35;17.60;;;17.50;96.80;;;;;;5013964;28;20030;-77
2021/04/01 05:40:47;;;;;;;48.10;19.48;;;18.00;96.00;;;;;;5012202;28;20045;-78
2021/04/01 05:43:19;;;;;;;47.60;19.30;;;18.40;95.10;;;;;;4997871;28;20101;-81
2021/04/01 05:45:50;;;;;;;40.00;18.38;;;18.80;94.50;;;;;;5009499;28;20025;-81
2021/04/01 05:48:45;;;;;;;62.13;20.42;;;19.00;94.40;;;;;;5000285;28;20042;-81
2021/04/01 06:09:37;;;;;;;52.45;18.65;;;22.20;90.90;;;;;;4974686;28;20019;-80
2021/04/01 06:12:04;;;;;;;53.70;20.60;;;22.80;90.50;;;;;;4974596;28;20070;-79
2021/04/01 06:14:32;;;;;;;52.13;19.42;;;23.20;90.00;;;;;;4973059;28;20122;-81
2021/04/01 06:17:04;;;;;;;40.97;19.33;;;23.40;88.60;;;;;;4974250;28;20035;-80
2021/04/01 06:19:33;;;;;;;47.30;19.70;;;23.80;88.00;;;;;;4989772;28;20025;-81
2021/04/01 06:22:04;;;;;;;66.22;20.60;;;24.20;87.20;;;;;;4974292;28;20042;-80
2021/04/01 06:24:30;;;;;;;51.75;18.63;;;24.50;86.30;;;;;;4974653;28;20098;-80
2021/04/01 06:27:22;;;;;;;62.83;19.50;;;24.50;86.10;;;;;;4974206;28;20039;-80
2021/04/01 06:33:08;;;;;;;57.80;19.30;;;25.10;84.10;;;;;;4933407;29;20043;-81
2021/04/01 06:35:45;;;;;;;52.67;20.20;;;25.30;83.90;;;;;;4933596;29;20280;-80
2021/04/01 06:40:51;;;;;;;54.05;20.15;;;26.00;81.90;;;;;;4973883;28;20023;-79
2021/04/01 06:43:16;;;;;;;71.53;20.02;;;26.60;81.40;;;;;;4973619;28;20023;-81
2021/04/01 06:45:58;;;;;;;48.88;19.92;;;27.60;79.70;;;;;;4973250;28;20068;-81
2021/04/01 06:48:34;;;;;;;56.45;19.83;;;28.50;77.60;;;;;;4973821;28;20030;-85
2021/04/01 06:51:09;;;;;;;52.15;18.98;;;28.90;76.60;;;;;;4974063;28;20532;-85
2021/04/01 06:53:41;;;;;;;51.08;18.05;;;29.10;76.20;;;;;;4973641;28;20023;-86
2021/04/01 06:56:28;;;;;;;44.45;19.45;;;29.60;75.20;;;;;;5002216;28;20065;-85
2021/04/01 07:01:46;;;;;;;47.47;18.40;;;30.60;73.90;;;;;;4999657;28;20029;-83
2021/04/01 07:04:24;;;;;;;43.63;17.10;;;31.60;72.10;;;;;;5012641;28;20108;-85
2021/04/01 07:06:54;;;;;;;49.28;19.20;;;31.80;71.30;;;;;;5012801;28;20027;-84
2021/04/01 07:09:36;;;;;;;47.30;17.33;;;32.40;70.50;;;;;;5012497;28;20493;-84
2021/04/01 07:12:18;;;;;;;42.30;16.45;;;33.00;69.00;;;;;;5012765;28;20034;-85
2021/04/01 07:14:47;;;;;;;45.17;18.45;;;33.20;67.60;;;;;;4993915;28;20037;-85
2021/04/01 07:17:26;;;;;;;54.78;18.73;;;33.20;67.70;;;;;;5011294;28;20042;-85
2021/04/01 07:48:02;;;;;;;64.68;19.60;;;37.90;57.70;;;;;;5012160;28;20037;-84
2021/04/01 07:50:38;;;;;;;65.88;17.70;;;38.50;57.30;;;;;;5011931;28;20025;-85
2021/04/01 07:53:04;;;;;;;66.30;17.52;;;39.00;56.60;;;;;;5013596;28;20467;-84
2021/04/01 07:55:38;;;;;;;51.38;17.90;;;39.10;56.00;;;;;;5009092;28;20051;-83
2021/04/01 08:03:53;;;;;;;45.17;14.77;;;35.50;59.00;;;;;;5002292;28;20170;-85
2021/04/01 08:06:29;;;;;;;61.47;14.55;;;33.60;61.20;;;;;;5015855;28;20018;-85
2021/04/01 08:09:03;;;;;;;39.80;13.90;;;32.20;63.40;;;;;;5014181;28;20037;-84
2021/04/01 08:11:37;;;;;;;45.58;14.70;;;31.50;64.80;;;;;;5002484;28;20026;-85
2021/04/01 08:14:04;;;;;;;44.28;13.95;;;30.70;66.60;;;;;;5010717;28;20062;-85
2021/04/01 08:16:37;;;;;;;47.33;11.88;;;29.90;68.50;;;;;;4996994;28;20096;-84
2021/04/01 08:19:04;;;;;;;46.70;12.30;;;29.50;69.70;;;;;;4997465;28;20041;-84
2021/04/01 08:21:31;;;;;;;27.88;11.23;;;29.00;70.90;;;;;;5002713;28;20026;-85
2021/04/01 08:24:08;;;;;;;33.65;11.98;;;28.50;72.10;;;;;;4996577;28;20087;-83
2021/04/01 08:34:49;;;;;;;38.72;10.90;;;27.50;74.80;;;;;;4925656;29;20135;-83
2021/04/01 08:37:20;;;;;;;32.33;9.25;;;27.20;75.50;;;;;;4987270;28;20037;-82
2021/04/01 08:39:47;;;;;;;29.10;9.85;;;27.10;76.80;;;;;;5014745;28;20033;-83
2021/04/01 08:42:33;;;;;;;33.97;9.90;;;26.80;77.60;;;;;;5013938;28;20029;-87
2021/04/01 08:48:28;;;;;;;29.55;10.50;;;26.50;78.60;;;;;;5014892;28;20032;-87
2021/04/01 08:50:54;;;;;;;36.80;11.02;;;26.60;78.30;;;;;;5008871;28;20022;-87
2021/04/01 08:53:54;;;;;;;28.98;10.55;;;26.60;78.30;;;;;;4984132;28;20036;-84
2021/04/01 08:56:44;;;;;;;20.55;9.65;;;26.60;78.60;;;;;;5012634;28;20042;-85
2021/04/01 08:59:13;;;;;;;23.38;10.10;;;26.40;78.90;;;;;;5012458;28;20022;-89
2021/04/01 09:01:41;;;;;;;31.25;10.98;;;26.20;78.50;;;;;;5011168;28;20042;-86
2021/04/01 09:04:08;;;;;;;37.72;12.63;;;26.00;78.60;;;;;;5018056;28;20030;-83
2021/04/01 09:06:45;;;;;;;35.25;12.50;;;25.90;77.40;;;;;;5000202;28;20048;-83
2021/04/01 09:09:13;;;;;;;39.72;13.43;;;;;;;;;;5005045;28;20026;-85
2021/04/01 09:14:17;;;;;;;63.70;17.90;;;25.60;72.10;;;;;;5003830;28;20018;-82
2021/04/01 09:16:53;;;;;;;38.22;13.48;;;25.60;71.50;;;;;;5010854;28;20121;-82
2021/04/01 09:19:29;;;;;;;30.55;14.05;;;25.70;72.50;;;;;;4990588;28;20025;-82
2021/04/01 09:21:55;;;;;;;36.33;12.88;;;25.80;72.10;;;;;;4995617;28;20018;-83
2021/04/01 09:24:28;;;;;;;34.28;12.63;;;25.90;71.20;;;;;;5010486;28;20080;-81
2021/04/01 09:26:54;;;;;;;29.05;11.35;;;26.10;68.40;;;;;;5011315;28;20033;-82
2021/04/01 09:29:20;;;;;;;26.92;11.20;;;26.20;67.10;;;;;;5008325;28;20019;-82
2021/04/01 09:31:55;;;;;;;28.58;10.27;;;26.30;66.70;;;;;;5012361;28;20037;-83
2021/04/01 09:34:23;;;;;;;23.58;10.35;;;26.30;63.20;;;;;;5002996;28;20060;-82
2021/04/01 09:36:49;;;;;;;32.03;12.35;;;26.40;63.30;;;;;;5016940;28;20026;-89
2021/04/01 09:39:28;;;;;;;34.70;12.20;;;26.50;61.70;;;;;;4992870;28;20057;-82
2021/04/01 09:42:07;;;;;;;27.63;11.50;;;26.50;63.00;;;;;;5013666;28;20114;-83
2021/04/01 09:44:34;;;;;;;47.58;14.02;;;26.60;62.20;;;;;;5014080;28;20022;-88
2021/04/01 09:50:16;;;;;;;39.72;12.77;;;26.70;63.80;;;;;;5018239;28;20045;-88
2021/04/01 09:56:07;;;;;;;27.83;10.15;;;26.60;63.80;;;;;;5022440;28;20199;-87
2021/04/01 09:58:50;;;;;;;35.28;10.75;;;26.60;63.40;;;;;;4937487;28;20027;-87
2021/04/01 10:04:14;;;;;;;61.53;12.80;;;26.80;63.20;;;;;;5016084;28;20605;-84
2021/04/01 10:06:46;;;;;;;32.55;11.80;;;26.80;64.00;;;;;;5024613;28;20333;-89
2021/04/01 10:09:28;;;;;;;39.75;12.27;;;26.80;64.20;;;;;;5024098;28;20017;-86
2021/04/01 10:11:58;;;;;;;25.67;9.77;;;26.70;63.30;;;;;;5023385;28;20013;-82
2021/04/01 10:14:24;;;;;;;30.92;11.43;;;26.60;62.10;;;;;;5028167;28;20096;-82
2021/04/01 10:16:52;;;;;;;24.48;9.75;;;26.50;63.30;;;;;;5028205;28;20037;-83
2021/04/01 10:19:31;;;;;;;29.17;10.00;;;26.30;65.80;;;;;;5030449;28;20071;-83
2021/04/01 10:21:58;;;;;;;31.38;8.98;;;26.30;61.90;;;;;;5027961;28;20057;-83
2021/04/01 10:24:34;;;;;;;36.35;8.07;;;26.50;62.00;;;;;;5029174;28;20025;-83
2021/04/01 10:32:13;;;;;;;;;;;26.50;61.80;;;;;;5030057;28;20120;-82
2021/04/01 10:34:56;;;;;;;24.55;8.77;;;26.50;60.40;;;;;;5029326;28;19969;-82
2021/04/01 10:37:23;;;;;;;34.55;10.45;;;26.60;60.80;;;;;;5030985;28;20045;-83
2021/04/01 10:39:50;;;;;;;35.67;10.10;;;26.60;61.90;;;;;;5029729;28;20018;-83
2021/04/01 10:42:27;;;;;;;33.50;10.70;;;26.70;62.70;;;;;;5025444;28;20516;-82
2021/04/01 10:45:07;;;;;;;36.50;13.48;;;26.70;63.00;;;;;;5027632;28;20025;-83
2021/04/01 10:47:53;;;;;;;29.63;12.00;;;26.80;64.40;;;;;;5019884;28;20045;-82
2021/04/01 10:50:20;;;;;;;33.22;11.27;;;26.70;63.60;;;;;;5021602;28;20593;-82
2021/04/01 10:52:46;;;;;;;28.10;11.43;;;26.70;64.00;;;;;;5027568;28;20075;-82
2021/04/01 10:55:13;;;;;;;29.40;10.95;;;26.50;64.50;;;;;;5018153;28;20109;-83
2021/04/01 10:57:39;;;;;;;26.73;9.80;;;26.50;65.60;;;;;;5011259;28;20034;-83
2021/04/01 11:00:14;;;;;;;25.92;10.18;;;26.40;65.70;;;;;;5017136;28;20025;-83
2021/04/01 11:02:43;;;;;;;22.70;9.00;;;26.30;63.80;;;;;;5025835;28;20036;-83
2021/04/01 11:05:15;;;;;;;22.05;9.48;;;26.10;64.70;;;;;;5025635;28;20072;-83
2021/04/01 11:07:47;;;;;;;20.85;8.60;;;26.00;65.60;;;;;;5021167;28;20034;-83
2021/04/01 11:10:23;;;;;;;25.50;7.88;;;25.90;65.60;;;;;;5010824;28;20033;-83
2021/04/01 11:12:50;;;;;;;24.88;8.43;;;25.90;66.20;;;;;;5011832;28;20130;-83
2021/04/01 11:15:18;;;;;;;21.63;7.95;;;25.70;66.60;;;;;;5011721;28;20017;-83
2021/04/01 11:17:50;;;;;;;27.65;7.68;;;25.70;66.30;;;;;;5010574;28;20035;-83
2021/04/01 11:20:18;;;;;;;23.23;8.52;;;25.70;66.20;;;;;;5013194;28;20029;-83
2021/04/01 11:23:02;;;;;;;21.92;8.88;;;25.60;66.00;;;;;;5011462;28;20112;-81
2021/04/01 11:25:28;;;;;;;23.00;8.13;;;25.70;67.60;;;;;;5011535;28;20470;-81
2021/04/01 11:27:55;;;;;;;34.63;10.65;;;25.70;67.20;;;;;;5010822;28;20022;-81
2021/04/01 11:30:22;;;;;;;23.77;10.23;;;25.70;67.60;;;;;;5020836;28;20014;-79
2021/04/01 11:32:53;;;;;;;25.85;9.13;;;25.70;68.10;;;;;;5027398;28;20032;-80
2021/04/01 11:35:22;;;;;;;24.13;9.13;;;25.70;66.30;;;;;;5019846;28;20026;-80
2021/04/01 11:37:51;;;;;;;24.70;8.77;;;25.80;67.00;;;;;;5012542;28;20046;-79
2021/04/01 11:40:18;;;;;;;21.75;7.57;;;25.80;65.90;;;;;;5014019;28;20033;-79
2021/04/01 11:42:54;;;;;;;22.45;8.35;;;25.80;64.80;;;;;;5017780;28;20021;-79
2021/04/01 11:45:31;;;;;;;17.88;8.05;;;25.70;65.70;;;;;;5015950;28;20421;-80
2021/04/01 11:47:57;;;;;;;20.67;7.18;;;25.70;66.60;;;;;;5025881;28;20072;-81
2021/04/01 11:50:23;;;;;;;23.80;9.10;;;25.60;65.40;;;;;;5026459;28;20445;-81
2021/04/01 11:52:57;;;;;;;28.30;8.90;;;25.60;66.40;;;;;;5021238;28;20033;-80
2021/04/01 11:55:24;;;;;;;21.65;9.27;;;25.60;66.60;;;;;;5016733;28;20030;-78
2021/04/01 11:57:50;;;;;;;35.53;11.13;;;25.60;66.20;;;;;;5017307;28;20506;-79
2021/04/01 12:00:26;;;;;;;31.60;11.15;;;25.60;66.80;;;;;;5009172;28;20032;-79
2021/04/01 12:03:06;;;;;;;23.30;10.02;;;25.60;67.00;;;;;;5011029;28;20029;-79
2021/04/01 12:05:38;;;;;;;27.95;11.25;;;25.60;66.30;;;;;;5015046;28;20048;-80
2021/04/01 12:08:05;;;;;;;33.53;10.82;;;25.50;67.40;;;;;;5013181;28;20116;-81
2021/04/01 12:10:30;;;;;;;30.45;11.98;;;25.40;67.30;;;;;;5013320;28;20072;-78
2021/04/01 12:12:57;;;;;;;29.67;13.45;;;25.30;67.80;;;;;;5010881;28;20101;-79
2021/04/01 12:15:39;;;;;;;32.97;12.13;;;25.10;68.60;;;;;;5019725;28;20026;-80
2021/04/01 12:18:06;;;;;;;33.97;11.65;;;25.10;69.60;;;;;;5020255;28;20025;-82
2021/04/01 12:20:33;;;;;;;31.67;12.88;;;25.00;69.40;;;;;;5012938;28;20026;-79
2021/04/01 12:23:21;;;;;;;34.30;13.13;;;24.90;68.70;;;;;;5010877;28;20482;-79
2021/04/01 12:26:04;;;;;;;32.30;12.57;;;24.90;69.50;;;;;;4999468;28;20030;-80
2021/04/01 12:28:29;;;;;;;25.05;11.85;;;24.90;71.20;;;;;;5022981;28;21244;-81
2021/04/01 12:30:56;;;;;;;29.92;11.48;;;24.90;72.00;;;;;;5023212;28;20497;-80
2021/04/01 12:33:24;;;;;;;24.90;11.48;;;24.90;71.60;;;;;;5028642;28;20108;-79
2021/04/01 12:35:50;;;;;;;28.35;12.10;;;24.90;72.40;;;;;;5021575;28;20533;-81
2021/04/01 12:38:29;;;;;;;33.60;13.05;;;24.80;71.00;;;;;;5009853;28;20034;-82
2021/04/01 12:40:57;;;;;;;36.63;12.80;;;24.70;69.40;;;;;;5027200;28;20029;-79
2021/04/01 12:43:39;;;;;;;38.45;12.88;;;24.70;70.60;;;;;;5028165;28;20021;-81
2021/04/01 12:46:05;;;;;;;27.13;11.32;;;24.70;70.80;;;;;;5017051;28;20487;-81
2021/04/01 12:48:43;;;;;;;40.65;13.57;;;24.70;72.00;;;;;;5020080;28;20038;-81
2021/04/01 12:51:11;;;;;;;34.88;14.00;;;24.60;72.50;;;;;;5017770;28;20033;-79
2021/04/01 12:53:37;;;;;;;39.25;13.40;;;24.50;72.40;;;;;;5014550;28;20018;-80
2021/04/01 12:56:18;;;;;;;30.77;13.77;;;24.50;73.60;;;;;;5012717;28;20022;-78
2021/04/01 12:58:47;;;;;;;41.22;15.60;;;24.40;74.30;;;;;;5023430;28;20041;-81
2021/04/01 13:01:40;;;;;;;44.60;15.02;;;24.30;73.40;;;;;;5014013;28;20386;-81
2021/04/01 13:04:09;;;;;;;43.97;16.10;;;24.20;72.60;;;;;;5023042;28;20116;-80
2021/04/01 13:11:45;;;;;;;45.67;16.67;;;23.90;73.40;;;;;;5026811;28;20017;-79
2021/04/01 13:14:11;;;;;;;45.42;16.52;;;23.80;73.80;;;;;;5027120;28;20552;-80
2021/04/01 13:16:38;;;;;;;47.17;16.45;;;23.80;73.30;;;;;;5029196;28;20025;-80
2021/04/01 13:19:06;;;;;;;48.08;17.08;;;23.70;73.30;;;;;;5028955;28;20024;-79
2021/04/01 13:21:41;;;;;;;36.35;15.25;;;23.80;72.90;;;;;;5032417;28;20045;-79
2021/04/01 13:26:41;;;;;;;52.47;17.92;;;23.70;74.50;;;;;;5032126;28;20030;-81
2021/04/01 13:29:08;;;;;;;48.55;17.98;;;23.70;73.40;;;;;;5014847;28;20056;-80
2021/04/01 13:36:42;;;;;;;46.45;17.80;;;23.60;74.80;;;;;;5023111;28;20037;-83
2021/04/01 13:39:09;;;;;;;49.80;17.17;;;23.50;74.70;;;;;;5013513;28;20387;-81
2021/04/01 13:44:23;;;;;;;47.30;17.48;;;23.50;73.90;;;;;;5025439;28;20672;-82
2021/04/01 13:46:49;;;;;;;53.40;17.42;;;23.60;73.80;;;;;;5029056;28;20084;-81
2021/04/01 13:49:21;;;;;;;47.90;15.35;;;23.60;73.00;;;;;;5031039;28;20042;-80
2021/04/01 13:51:49;;;;;;;45.97;15.40;;;23.70;71.80;;;;;;5029139;28;20037;-80
2021/04/01 13:54:29;;;;;;;35.28;13.85;;;23.60;70.60;;;;;;5021696;28;20049;-81
2021/04/01 13:57:47;;;;;;;32.20;11.40;;;23.60;68.50;;;;;;5013285;28;20122;-80
2021/04/01 14:11:11;;;;;;;33.83;12.73;;;23.60;68.20;;;;;;5020862;28;20028;-80
2021/04/01 14:13:36;;;;;;;29.95;11.95;;;23.60;68.00;;;;;;5012859;28;20033;-82
2021/04/01 14:16:02;;;;;;;32.95;12.13;;;23.60;68.80;;;;;;5011273;28;20037;-77
2021/04/01 14:18:30;;;;;;;33.78;12.70;;;23.60;69.10;;;;;;5012446;28;20052;-77
2021/04/01 14:20:58;;;;;;;28.98;11.73;;;23.60;69.60;;;;;;5012288;28;20506;-79
2021/04/01 14:23:27;;;;;;;30.30;11.43;;;23.70;69.10;;;;;;5012029;28;20525;-75
2021/04/01 14:25:55;;;;;;;33.72;12.05;;;23.60;68.60;;;;;;5011376;28;20030;-74
2021/04/01 14:28:21;;;;;;;34.60;12.98;;;23.70;69.90;;;;;;5011906;28;20486;-75
2021/04/01 14:30:47;;;;;;;31.65;11.88;;;23.70;70.50;;;;;;5011958;28;20073;-74
2021/04/01 14:33:14;;;;;;;53.95;13.32;;;23.60;71.50;;;;;;5015380;28;20502;-74
2021/04/01 14:35:43;;;;;;;28.52;12.00;;;23.60;71.30;;;;;;5011676;28;20018;-75
2021/04/01 14:38:10;;;;;;;30.85;10.25;;;23.50;70.60;;;;;;5009817;28;20386;-75
2021/04/01 14:43:24;;;;;;;30.40;10.85;;;23.50;70.60;;;;;;5017302;28;20486;-77
2021/04/01 14:45:51;;;;;;;23.77;9.85;;;23.50;70.90;;;;;;5008177;28;20022;-84
2021/04/01 14:48:16;;;;;;;30.02;9.40;;;23.60;70.90;;;;;;5009381;28;20115;-77
2021/04/01 14:50:42;;;;;;;21.40;9.63;;;23.50;70.50;;;;;;5019313;28;20104;-82
2021/04/01 14:53:29;;;;;;;30.58;8.90;;;23.40;69.70;;;;;;5010406;28;20053;-79
2021/04/01 14:55:55;;;;;;;27.88;8.90;;;23.30;69.70;;;;;;5006720;28;20514;-81
2021/04/01 14:58:22;;;;;;;16.95;8.20;;;23.30;69.50;;;;;;5007856;28;20033;-79
2021/04/01 15:00:51;;;;;;;17.38;7.82;;;23.40;69.40;;;;;;5017960;28;20071;-79
2021/04/01 15:03:17;;;;;;;20.35;6.05;;;23.40;69.30;;;;;;5030844;28;20074;-78
2021/04/01 15:05:45;;;;;;;19.25;6.70;;;23.40;68.40;;;;;;5012876;28;20026;-76